Latest Weather Observations for Townsville

IDQ60801

Issued at 11:12 am EST Friday 18 October 2019 (issued every 10 minutes, with the page automatically refreshed every 10 minutes)

About weather observations | Map of weather stations | Latest weather observations for QLD | Other Formats
Station Details ID: 032040 Name: TOWNSVILLE AERO Lat: -19.25 Lon: 146.77 Height: 4.34 m
Data from the previous 72 hours. | See also: Recent months at Townsville
Date/Time
EST
Temp
°C
App
Temp
°C
Dew
Point
°C
Rel
Hum
%
Delta-T
°C
Wind Press
QNH
hPa
Press
MSL
hPa
Rain since
9am
mm
Dir  Spd
km/h
Gust
km/h
Spd
kts
Gust
kts
18/11:00am 29.3 29.6 19.6 56 6.3 N 17 26 9 14 1016.2 1016.1 0.0
18/10:30am 29.4 29.9 20.1 57 6.1 N 17 24 9 13 1016.4 1016.3 0.0
18/10:00am 27.7 28.0 19.7 61 5.2 N 17 26 9 14 1016.9 1016.8 0.0
18/09:30am 28.6 28.0 19.7 58 5.8 NNE 22 28 12 15 1016.9 1016.8 0.0
18/09:00am 27.9 27.6 20.4 63 4.9 NNE 22 30 12 16 1016.9 1016.8 0.0
18/08:30am 28.2 28.3 19.9 60 5.4 N 19 26 10 14 1017.2 1017.1 0.0
18/08:00am 27.2 27.4 20.2 65 4.6 N 19 24 10 13 1017.1 1017.0 0.0
18/07:30am 26.8 26.8 20.2 67 4.3 N 20 26 11 14 1016.8 1016.7 0.0
18/07:00am 25.9 26.3 20.6 72 3.5 NNE 19 28 10 15 1016.5 1016.4 0.0
18/06:30am 25.4 26.5 20.5 74 3.2 NNE 15 22 8 12 1016.0 1015.9 0.0
18/06:00am 24.6 24.9 20.3 77 2.8 NNE 19 24 10 13 1015.4 1015.3 0.0
18/05:30am 24.3 25.3 20.3 78 2.6 NNE 15 20 8 11 1015.2 1015.1 0.0
18/05:00am 24.5 25.1 20.2 77 2.8 N 17 20 9 11 1015.0 1014.9 0.0
18/04:30am 24.7 25.8 20.4 77 2.8 N 15 22 8 12 1014.9 1014.8 0.0
18/04:00am 24.8 25.1 20.5 77 2.8 NNE 19 26 10 14 1014.6 1014.5 0.0
18/03:30am 24.9 25.1 20.1 74 3.1 N 19 24 10 13 1014.6 1014.5 0.0
18/03:00am 25.0 25.3 20.4 75 3.0 N 19 24 10 13 1014.4 1014.3 0.0
18/02:30am 24.9 25.4 20.1 74 3.1 N 17 22 9 12 1014.5 1014.4 0.0
18/02:00am 24.8 25.2 19.8 74 3.2 N 17 22 9 12 1014.6 1014.5 0.0
18/01:30am 24.9 24.9 19.8 73 3.3 N 19 24 10 13 1014.8 1014.7 0.0
18/01:00am 24.9 25.9 20.3 75 3.0 NNE 15 19 8 10 1015.2 1015.1 0.0
18/12:30am 24.9 25.7 19.8 73 3.3 N 15 17 8 9 1015.6 1015.5 0.0
18/12:00am 25.0 25.5 20.1 74 3.2 N 17 24 9 13 1015.6 1015.5 0.0
 
Date/Time
EST
Temp
°C
App
Temp
°C
Dew
Point
°C
Rel
Hum
%
Delta-T
°C
Wind Press
QNH
hPa
Press
MSL
hPa
Rain since
9am
mm
Dir  Spd
km/h
Gust
km/h
Spd
kts
Gust
kts
17/11:30pm 25.0 25.9 20.1 74 3.2 N 15 22 8 12 1015.8 1015.7 0.0
17/11:00pm 24.9 25.4 20.0 74 3.2 N 17 19 9 10 1016.0 1015.9 0.0
17/10:30pm 24.9 24.6 19.6 72 3.4 N 20 28 11 15 1015.9 1015.8 0.0
17/10:00pm 24.7 25.5 19.9 74 3.1 N 15 19 8 10 1016.2 1016.1 0.0
17/09:30pm 24.9 25.1 19.4 71 3.5 N 17 24 9 13 1016.0 1015.9 0.0
17/09:00pm 25.0 26.6 19.9 73 3.3 N 11 15 6 8 1016.3 1016.2 0.0
17/08:30pm 25.2 26.0 19.9 72 3.4 N 15 22 8 12 1016.0 1015.9 0.0
17/08:00pm 25.2 25.0 19.8 72 3.5 NNE 20 26 11 14 1015.6 1015.5 0.0
17/07:30pm 25.2 25.6 19.8 72 3.5 NNE 17 22 9 12 1015.5 1015.4 0.0
17/07:00pm 25.1 25.0 20.0 73 3.3 NNE 20 26 11 14 1015.3 1015.2 0.0
17/06:30pm 25.4 25.3 19.5 70 3.8 N 19 24 10 13 1014.8 1014.7 0.0
17/06:00pm 25.7 26.0 19.7 69 3.9 N 17 22 9 12 1014.4 1014.3 0.0
17/05:30pm 26.0 25.8 19.8 68 4.0 N 20 28 11 15 1014.1 1014.0 0.0
17/05:00pm 27.0 26.5 19.9 65 4.6 N 22 30 12 16 1013.8 1013.7 0.0
17/04:30pm 27.5 27.5 19.8 63 5.0 N 19 26 10 14 1013.8 1013.7 0.0
17/04:00pm 28.0 27.3 19.4 59 5.6 N 22 33 12 18 1013.7 1013.6 0.0
17/03:30pm 28.0 26.9 19.4 59 5.6 N 24 32 13 17 1013.6 1013.5 0.0
17/03:00pm 28.7 28.0 18.6 54 6.5 N 20 30 11 16 1013.8 1013.7 0.0
17/02:30pm 28.6 27.2 17.9 52 6.8 N 22 32 12 17 1014.1 1014.0 0.0
17/02:00pm 28.6 26.8 17.9 52 6.8 N 24 33 13 18 1014.5 1014.4 0.0
17/01:30pm 28.5 26.8 18.1 53 6.6 N 24 35 13 19 1014.9 1014.8 0.0
17/01:00pm 28.9 26.9 17.5 50 7.2 NNE 24 33 13 18 1015.1 1015.0 0.0
17/12:30pm 28.8 26.6 17.0 49 7.4 NNE 24 35 13 19 1015.6 1015.5 0.0
17/12:00pm 29.3 27.6 17.2 48 7.6 N 22 33 12 18 1016.1 1016.0 0.0
17/11:30am 28.9 26.3 16.9 48 7.5 NNE 26 35 14 19 1016.5 1016.4 0.0
17/11:00am 28.8 26.9 16.8 48 7.5 NNE 22 33 12 18 1016.8 1016.7 0.0
17/10:30am 28.3 26.3 17.5 52 6.8 N 24 33 13 18 1016.9 1016.8 0.0
17/10:00am 29.1 26.9 17.0 48 7.6 NNE 24 33 13 18 1017.0 1016.9 0.0
17/09:30am 28.8 27.9 18.3 53 6.7 N 20 30 11 16 1017.0 1016.9 0.0
17/09:00am 27.9 27.4 19.2 59 5.6 N 20 28 11 15 1016.6 1016.5 0.0
17/08:30am 26.1 25.7 19.4 66 4.3 N 20 28 11 15 1016.3 1016.2 0.0
17/08:00am 26.4 25.3 18.7 62 4.9 N 22 30 12 16 1016.1 1016.0 0.0
17/07:30am 26.9 26.6 18.2 59 5.5 N 17 26 9 14 1015.7 1015.6 0.0
17/07:00am 26.4 25.2 17.5 58 5.6 N 20 32 11 17 1015.4 1015.3 0.0
17/06:30am 25.5 25.6 18.4 65 4.5 N 15 22 8 12 1015.1 1015.0 0.0
17/06:00am 24.9 25.6 18.9 69 3.8 N 13 17 7 9 1014.8 1014.7 0.0
17/05:30am 24.9 25.2 19.5 72 3.5 N 17 20 9 11 1014.6 1014.5 0.0
17/05:00am 24.9 26.0 18.9 69 3.8 N 11 15 6 8 1014.5 1014.4 0.0
17/04:30am 24.3 25.3 19.5 74 3.1 NNE 13 15 7 8 1014.1 1014.0 0.0
17/04:00am 24.8 25.6 19.8 74 3.2 NNE 15 19 8 10 1014.1 1014.0 0.0
17/03:30am 24.8 25.9 19.7 73 3.3 NNE 13 15 7 8 1013.9 1013.8 0.0
17/03:00am 24.7 25.7 19.4 72 3.4 N 13 15 7 8 1013.7 1013.6 0.0
17/02:30am 24.8 25.9 19.7 73 3.3 N 13 22 7 12 1013.9 1013.8 0.0
17/02:00am 24.3 25.1 19.0 72 3.4 N 13 19 7 10 1013.9 1013.8 0.0
17/01:30am 24.1 25.0 19.2 74 3.1 N 13 17 7 9 1014.2 1014.1 0.0
17/01:00am 24.5 25.1 19.5 73 3.2 N 15 20 8 11 1014.4 1014.3 0.0
17/12:30am 24.8 25.9 19.7 73 3.3 N 13 17 7 9 1014.7 1014.6 0.0
17/12:00am 25.0 26.1 19.7 72 3.4 N 13 19 7 10 1014.8 1014.7 0.0
 
Date/Time
EST
Temp
°C
App
Temp
°C
Dew
Point
°C
Rel
Hum
%
Delta-T
°C
Wind Press
QNH
hPa
Press
MSL
hPa
Rain since
9am
mm
Dir  Spd
km/h
Gust
km/h
Spd
kts
Gust
kts
16/11:30pm 24.4 24.6 19.4 73 3.2 N 17 20 9 11 1014.9 1014.8 0.0
16/11:00pm 25.0 25.3 19.7 72 3.4 N 17 22 9 12 1015.1 1015.0 0.0
16/10:30pm 25.1 25.4 19.5 71 3.6 NNE 17 22 9 12 1015.0 1014.9 0.0
16/10:00pm 24.8 24.8 19.0 70 3.7 NNE 17 24 9 13 1015.1 1015.0 0.0
16/09:30pm 24.9 25.8 19.3 71 3.6 NNE 13 17 7 9 1015.1 1015.0 0.0
16/09:00pm 24.8 25.7 19.2 71 3.6 NNE 13 17 7 9 1015.0 1014.9 0.0
16/08:30pm 24.6 25.5 19.3 72 3.4 N 13 17 7 9 1014.7 1014.6 0.0
16/08:00pm 24.7 25.2 19.2 71 3.5 NNE 15 17 8 9 1014.5 1014.4 0.0
16/07:30pm 24.8 25.2 19.0 70 3.7 NNE 15 19 8 10 1014.4 1014.3 0.0
16/07:00pm 24.7 24.8 19.1 71 3.6 NNE 17 20 9 11 1014.1 1014.0 0.0
16/06:30pm 25.1 25.1 19.0 69 3.9 NNE 17 20 9 11 1013.8 1013.7 0.0
16/06:00pm 25.3 24.9 19.0 68 4.0 N 19 26 10 14 1013.6 1013.5 0.0
16/05:30pm 25.6 24.8 19.2 67 4.1 N 22 28 12 15 1013.4 1013.3 0.0
16/05:00pm 26.2 25.4 19.2 65 4.5 N 22 32 12 17 1012.9 1012.8 0.0
16/04:30pm 26.2 25.0 19.2 65 4.5 N 24 33 13 18 1012.8 1012.7 0.0
16/04:00pm 27.2 25.5 19.0 61 5.3 N 26 33 14 18 1012.7 1012.6 0.0
16/03:30pm 27.7 26.5 19.2 60 5.5 N 24 33 13 18 1012.7 1012.6 0.0
16/03:00pm 27.7 25.7 19.2 60 5.5 N 28 35 15 19 1012.9 1012.8 0.0
16/02:30pm 27.9 25.2 18.5 56 6.0 N 30 39 16 21 1013.0 1012.9 0.0
16/02:00pm 28.6 26.7 18.6 54 6.4 N 26 35 14 19 1013.3 1013.2 0.0
16/01:30pm 28.3 26.6 19.0 57 6.0 N 26 35 14 19 1013.7 1013.6 0.0
16/01:00pm 28.5 26.4 18.1 53 6.6 N 26 39 14 21 1014.1 1014.0 0.0
16/12:30pm 28.4 26.5 18.6 55 6.3 N 26 41 14 22 1014.5 1014.4 0.0
16/12:00pm 28.5 26.9 19.2 57 6.0 N 26 35 14 19 1014.8 1014.7 0.0
16/11:30am 28.3 26.1 18.6 55 6.2 N 28 37 15 20 1015.1 1015.0 0.0
16/11:00am 28.5 26.5 19.1 56 6.1 NNE 28 39 15 21 1015.1 1015.0 0.0
16/10:30am 28.5 28.0 19.1 56 6.1 N 20 30 11 16 1015.2 1015.1 0.0
16/10:00am 28.4 27.5 18.2 54 6.5 NNE 20 28 11 15 1015.4 1015.3 0.0
16/09:30am 27.4 27.0 18.8 59 5.5 N 19 28 10 15 1015.6 1015.5 0.0
16/09:00am 27.5 27.8 19.5 61 5.2 N 17 26 9 14 1015.5 1015.4 0.0
16/08:30am 26.3 26.6 19.7 67 4.3 N 17 24 9 13 1015.4 1015.3 0.0
16/08:00am 26.5 26.4 19.9 67 4.3 NNW 20 28 11 15 1015.2 1015.1 0.0
16/07:30am 26.6 27.2 20.2 68 4.2 NNW 17 28 9 15 1014.8 1014.7 0.0
16/07:00am 25.2 26.2 19.4 70 3.7 NNW 13 20 7 11 1014.7 1014.6 0.0
16/06:30am 24.1 25.3 19.9 77 2.7 N 13 17 7 9 1014.1 1014.0 0.0
16/06:00am 23.6 25.0 19.5 78 2.6 N 11 15 6 8 1013.9 1013.8 0.0
16/05:30am 23.3 24.4 19.7 80 2.3 N 13 17 7 9 1013.8 1013.7 0.0
16/05:00am 22.7 24.3 19.9 84 1.8 NNE 11 13 6 7 1013.6 1013.5 0.0
16/04:30am 22.8 24.0 20.0 84 1.8 NNE 13 17 7 9 1013.3 1013.2 0.0
16/04:00am 21.7 23.9 19.7 88 1.3 NNE 7 11 4 6 1012.7 1012.6 0.0
16/03:30am 21.2 24.6 19.3 89 1.2 CALM 0 0 0 0 1012.0 1011.9 0.0
16/03:00am 21.0 24.2 18.9 88 1.3 CALM 0 0 0 0 1011.9 1011.8 0.0
16/02:30am 22.2 25.6 19.4 84 1.8 CALM 0 0 0 0 1012.1 1012.0 0.0
16/02:00am 21.9 25.2 19.1 84 1.8 CALM 0 0 0 0 1012.3 1012.2 0.0
16/01:30am 22.4 25.8 19.3 82 2.0 CALM 0 0 0 0 1012.5 1012.4 0.0
16/01:00am 22.7 25.7 19.2 80 2.2 W 2 6 1 3 1012.8 1012.7 0.0
16/12:30am 22.6 24.8 19.5 82 2.0 W 7 9 4 5 1013.0 1012.9 0.0
16/12:00am 22.9 24.8 19.8 83 2.0 NW 9 13 5 7 1013.1 1013.0 0.0
 
Date/Time
EST
Temp
°C
App
Temp
°C
Dew
Point
°C
Rel
Hum
%
Delta-T
°C
Wind Press
QNH
hPa
Press
MSL
hPa
Rain since
9am
mm
Dir  Spd
km/h
Gust
km/h
Spd
kts
Gust
kts
15/11:30pm 23.9 25.9 20.0 79 2.5 N 9 13 5 7 1013.1 1013.0 0.0
15/11:00pm 23.2 25.4 20.3 84 1.9 N 9 13 5 7 1013.2 1013.1 0.0
15/10:30pm 23.3 25.3 20.0 82 2.1 N 9 11 5 6 1013.5 1013.4 0.0
15/10:00pm 23.3 25.7 20.0 82 2.1 N 7 11 4 6 1013.7 1013.6 0.0
15/09:30pm 23.5 25.6 20.1 81 2.2 NNE 9 13 5 7 1013.5 1013.4 0.0
15/09:00pm 23.8 25.1 20.1 80 2.4 N 13 17 7 9 1013.2 1013.1 0.0
15/08:30pm 23.8 25.0 19.9 79 2.5 N 13 19 7 10 1013.1 1013.0 0.0
15/08:00pm 23.7 25.6 19.8 79 2.5 NNE 9 11 5 6 1012.8 1012.7 0.0
15/07:30pm 23.6 24.9 19.2 76 2.8 N 11 13 6 7 1012.5 1012.4 0.0
15/07:00pm 24.0 24.8 19.1 74 3.1 N 13 19 7 10 1012.3 1012.2 0.0
15/06:30pm 24.5 25.3 19.0 71 3.5 N 13 22 7 12 1011.8 1011.7 0.0
15/06:00pm 25.1 24.8 18.3 66 4.3 N 17 20 9 11 1011.7 1011.6 0.0
15/05:30pm 25.9 25.2 17.4 59 5.3 N 17 24 9 13 1011.7 1011.6 0.0
15/05:00pm 27.0 25.1 15.7 50 6.9 N 20 26 11 14 1011.3 1011.2 0.0
15/04:30pm 27.5 25.5 16.5 51 6.8 N 22 32 12 17 1011.4 1011.3 0.0
15/04:00pm 27.6 24.5 14.5 44 7.9 N 24 30 13 16 1011.6 1011.5 0.0
15/03:30pm 27.5 26.1 16.9 52 6.6 N 20 28 11 15 1011.7 1011.6 0.0
15/03:00pm 27.7 24.9 17.2 52 6.6 NNE 28 35 15 19 1011.6 1011.5 0.0
15/02:30pm 27.8 25.8 16.5 50 7.0 N 22 30 12 16 1012.4 1012.3 0.0
15/02:00pm 28.2 25.2 15.9 47 7.6 N 26 33 14 18 1012.2 1012.1 0.0
15/01:30pm 28.5 26.2 17.6 51 6.9 NNE 26 33 14 18 1012.6 1012.5 0.0
15/01:00pm 28.0 26.9 17.3 52 6.7 N 19 28 10 15 1013.4 1013.3 0.0
15/12:30pm 28.2 26.7 16.8 50 7.1 N 20 32 11 17 1014.0 1013.9 0.0
15/12:00pm 28.5 27.3 16.2 47 7.6 NNW 17 26 9 14 1014.8 1014.7 0.0
15/11:30am 28.3 26.6 15.8 46 7.7 NNE 19 26 10 14 1015.4 1015.3 0.0

Other formats

Comma delimited format used in spreadsheet applications
http://www.bom.gov.au/fwo/IDQ60801/IDQ60801.94294.axf

JavaScript Object Notation format (JSON) in row-major order
http://www.bom.gov.au/fwo/IDQ60801/IDQ60801.94294.json

Data quality

Most of these data are generated automatically and are frequently updated. Quality checks on data are not normally performed. It is possible for incorrect values to appear. Refer to information at About Latest Weather Observations and please check the disclaimer before using these data.